createdAt,value
2023-01-31T00:02:11.857Z,89.86
2023-01-31T00:04:47.190Z,89.91
2023-01-31T00:07:21.736Z,89.80
2023-01-31T00:09:56.813Z,89.69
2023-01-31T00:12:30.783Z,89.41
2023-01-31T00:15:05.457Z,89.44
2023-01-31T00:17:42.377Z,89.33
2023-01-31T00:20:19.571Z,89.25
2023-01-31T00:22:55.109Z,88.95
2023-01-31T00:25:31.315Z,88.91
2023-01-31T00:28:06.822Z,89.01
2023-01-31T00:30:43.341Z,88.66
2023-01-31T00:33:18.866Z,88.74
2023-01-31T00:35:55.319Z,88.76
2023-01-31T00:38:29.958Z,88.40
2023-01-31T00:41:06.454Z,88.38
2023-01-31T00:43:43.967Z,88.01
2023-01-31T00:46:20.637Z,87.75
2023-01-31T00:48:58.771Z,87.92
2023-01-31T00:51:33.720Z,87.65
2023-01-31T00:54:07.926Z,87.59
2023-01-31T00:56:45.950Z,87.53
2023-01-31T00:59:21.683Z,87.40
2023-01-31T01:01:57.913Z,87.20
2023-01-31T01:04:34.827Z,86.99
2023-01-31T01:07:11.632Z,86.85
2023-01-31T01:09:46.489Z,86.96
2023-01-31T01:12:23.029Z,86.62
2023-01-31T01:14:58.409Z,86.61
2023-01-31T01:17:34.375Z,86.49
2023-01-31T01:20:13.056Z,86.40
2023-01-31T01:22:50.560Z,86.25
2023-01-31T01:25:30.502Z,86.04
2023-01-31T01:28:08.481Z,86.22
2023-01-31T01:30:47.071Z,85.84
2023-01-31T01:33:22.816Z,85.84
2023-01-31T01:35:58.123Z,85.81
2023-01-31T01:38:35.431Z,85.92
2023-01-31T01:41:13.155Z,85.78
2023-01-31T01:43:50.586Z,85.62
2023-01-31T01:46:30.575Z,85.35
2023-01-31T01:49:18.498Z,85.33
2023-01-31T01:51:56.711Z,85.46
2023-01-31T01:54:39.748Z,85.21
2023-01-31T01:57:18.982Z,85.22
2023-01-31T02:00:03.598Z,85.21
2023-01-31T02:02:54.273Z,85.35
2023-01-31T02:05:33.646Z,85.42
2023-01-31T02:08:11.884Z,85.50
2023-01-31T02:10:57.207Z,85.45
2023-01-31T02:13:33.271Z,85.61
2023-01-31T02:16:09.555Z,85.97
2023-01-31T02:18:45.419Z,85.59
2023-01-31T02:22:07.115Z,85.94
2023-01-31T02:25:44.947Z,85.41
2023-01-31T02:28:59.766Z,85.87
2023-01-31T02:32:03.918Z,85.91
2023-01-31T02:34:47.671Z,85.79
2023-01-31T02:37:39.859Z,85.92
2023-01-31T02:40:25.399Z,85.75
2023-01-31T02:43:09.556Z,85.96
2023-01-31T02:46:04.038Z,85.93
2023-01-31T02:48:54.910Z,86.08
2023-01-31T02:51:34.768Z,85.82
2023-01-31T02:54:16.667Z,85.80
2023-01-31T02:56:54.894Z,85.79
2023-01-31T02:59:32.080Z,85.95
2023-01-31T03:02:08.061Z,85.86
2023-01-31T03:04:44.074Z,85.93
2023-01-31T03:07:26.577Z,85.79
2023-01-31T03:10:12.761Z,85.53
2023-01-31T03:13:22.149Z,85.60
2023-01-31T03:16:22.142Z,85.38
2023-01-31T03:19:14.000Z,85.44
2023-01-31T03:21:53.530Z,85.17
2023-01-31T03:24:30.442Z,85.69
2023-01-31T03:27:07.514Z,85.19
2023-01-31T03:29:45.274Z,85.11
2023-01-31T03:32:25.491Z,85.05
2023-01-31T03:35:00.009Z,84.90
2023-01-31T03:37:43.130Z,85.22
2023-01-31T03:40:28.066Z,85.20
2023-01-31T03:43:14.827Z,84.71
2023-01-31T03:45:56.236Z,84.66
2023-01-31T03:48:36.161Z,84.51
2023-01-31T03:51:20.103Z,84.24
2023-01-31T03:54:16.999Z,84.40
2023-01-31T03:56:58.391Z,84.26
2023-01-31T03:59:37.100Z,83.95
2023-01-31T04:02:18.131Z,84.26
2023-01-31T04:04:56.132Z,84.10
2023-01-31T04:07:30.102Z,83.49
2023-01-31T04:10:07.506Z,83.21
2023-01-31T04:12:43.688Z,83.38
2023-01-31T04:15:20.110Z,83.35
2023-01-31T04:17:54.763Z,83.56
2023-01-31T04:20:32.058Z,83.24
2023-01-31T04:23:08.204Z,83.07
2023-01-31T04:25:43.992Z,83.33
2023-01-31T04:28:19.528Z,82.93
2023-01-31T04:30:59.830Z,82.72
2023-01-31T04:33:35.801Z,83.08
2023-01-31T04:36:15.231Z,82.64
2023-01-31T04:38:51.079Z,82.81
2023-01-31T04:41:28.182Z,82.56
2023-01-31T04:44:03.877Z,82.49
2023-01-31T04:46:38.264Z,82.31
2023-01-31T04:49:14.238Z,82.40
2023-01-31T04:51:49.963Z,82.39
2023-01-31T04:54:24.423Z,81.98
2023-01-31T04:57:00.143Z,82.07
2023-01-31T04:59:38.548Z,82.15
2023-01-31T05:02:15.393Z,82.19
2023-01-31T05:04:50.356Z,82.35
2023-01-31T05:07:26.957Z,82.22
2023-01-31T05:10:01.051Z,82.21
2023-01-31T05:12:36.324Z,82.43
2023-01-31T05:15:17.138Z,82.67
2023-01-31T05:18:03.571Z,82.32
2023-01-31T05:20:41.091Z,82.37
2023-01-31T05:23:17.093Z,82.19
2023-01-31T05:25:53.550Z,81.92
2023-01-31T05:28:27.758Z,81.97
2023-01-31T05:31:09.829Z,81.94
2023-01-31T05:33:45.884Z,81.86
2023-01-31T05:36:24.835Z,81.71
2023-01-31T05:39:03.720Z,81.97
2023-01-31T05:41:39.482Z,81.90
2023-01-31T05:44:16.560Z,81.90
2023-01-31T05:46:51.773Z,81.91
2023-01-31T05:49:27.668Z,81.88
2023-01-31T05:52:04.671Z,81.79
2023-01-31T05:54:40.065Z,81.88
2023-01-31T05:57:16.491Z,81.96
2023-01-31T05:59:52.735Z,82.05
2023-01-31T06:02:27.145Z,82.16
2023-01-31T06:05:04.778Z,82.18
2023-01-31T06:07:39.710Z,82.23
2023-01-31T06:10:15.987Z,81.76
2023-01-31T06:12:56.365Z,82.41
2023-01-31T06:15:30.686Z,81.81
2023-01-31T06:18:08.233Z,82.34
2023-01-31T06:20:45.813Z,82.40
2023-01-31T06:23:20.654Z,82.52
2023-01-31T06:25:59.546Z,82.56
2023-01-31T06:28:37.594Z,81.96
2023-01-31T06:31:14.902Z,81.80
2023-01-31T06:33:51.045Z,81.47
2023-01-31T06:36:25.860Z,81.81
2023-01-31T06:39:01.636Z,81.50
2023-01-31T06:41:37.141Z,81.48
2023-01-31T06:44:12.986Z,81.58
2023-01-31T06:46:48.868Z,81.80
2023-01-31T06:49:23.436Z,81.92
2023-01-31T06:52:02.893Z,81.74
2023-01-31T06:54:38.391Z,81.87
2023-01-31T06:57:16.337Z,82.27
2023-01-31T06:59:51.783Z,82.01
2023-01-31T07:02:30.504Z,81.99
2023-01-31T07:05:07.888Z,82.35
2023-01-31T07:07:46.835Z,82.39
2023-01-31T07:10:25.974Z,82.06
2023-01-31T07:13:20.925Z,82.52
2023-01-31T07:16:02.035Z,82.14
2023-01-31T07:18:36.177Z,82.77
2023-01-31T07:21:11.502Z,82.44
2023-01-31T07:23:47.570Z,82.68
2023-01-31T07:26:23.841Z,82.51
2023-01-31T07:29:01.768Z,82.67
2023-01-31T07:31:37.307Z,82.53
2023-01-31T07:34:13.414Z,82.68
2023-01-31T07:36:51.958Z,82.47
2023-01-31T07:39:27.363Z,82.80
2023-01-31T07:42:02.980Z,82.65
2023-01-31T07:44:37.897Z,82.50
2023-01-31T07:47:12.747Z,82.67
2023-01-31T07:49:48.721Z,82.16
2023-01-31T07:52:23.743Z,81.86
2023-01-31T07:55:00.261Z,81.88
2023-01-31T07:57:39.503Z,81.87
2023-01-31T08:00:42.206Z,81.33
2023-01-31T08:03:36.613Z,81.71
2023-01-31T08:06:17.537Z,81.73
2023-01-31T08:08:53.834Z,81.49
2023-01-31T08:11:29.812Z,81.35
2023-01-31T08:14:05.447Z,81.13
2023-01-31T08:16:42.813Z,81.03
2023-01-31T08:19:17.372Z,81.34
2023-01-31T08:21:52.670Z,81.08
2023-01-31T08:24:29.290Z,81.19
2023-01-31T08:27:03.303Z,80.68
2023-01-31T08:29:38.861Z,80.77
2023-01-31T08:32:15.227Z,81.09
2023-01-31T08:34:49.304Z,80.95
2023-01-31T08:37:23.359Z,80.34
2023-01-31T08:39:58.765Z,80.16
2023-01-31T08:42:34.112Z,80.68
2023-01-31T08:45:12.765Z,80.32
2023-01-31T08:47:47.838Z,80.10
2023-01-31T08:50:27.900Z,80.06
2023-01-31T08:53:05.173Z,79.85
2023-01-31T08:55:40.381Z,79.23
2023-01-31T08:58:15.665Z,79.30
2023-01-31T09:00:52.407Z,79.11
2023-01-31T09:03:27.373Z,78.70
2023-01-31T09:06:06.496Z,78.85
2023-01-31T09:08:42.277Z,78.68
2023-01-31T09:11:19.538Z,78.54
2023-01-31T09:13:54.404Z,78.38
2023-01-31T09:16:32.699Z,78.14
2023-01-31T09:19:07.842Z,77.64
2023-01-31T09:21:42.949Z,77.97
2023-01-31T09:24:18.329Z,77.40
2023-01-31T09:26:54.578Z,77.65
2023-01-31T09:29:29.822Z,77.12
2023-01-31T09:32:05.102Z,77.14
2023-01-31T09:34:39.141Z,77.11
2023-01-31T09:37:13.363Z,76.82
2023-01-31T09:39:50.278Z,76.73
2023-01-31T09:42:28.380Z,75.87
2023-01-31T09:45:08.870Z,76.15
2023-01-31T09:47:48.906Z,75.73
2023-01-31T09:50:30.831Z,75.70
2023-01-31T09:53:07.110Z,75.34
2023-01-31T09:55:56.415Z,74.76
2023-01-31T09:58:44.256Z,73.63
2023-01-31T10:01:24.804Z,73.61
2023-01-31T10:04:19.807Z,73.76
2023-01-31T10:07:01.116Z,72.73
2023-01-31T10:09:39.466Z,73.20
2023-01-31T10:12:20.472Z,72.37
2023-01-31T10:15:02.082Z,72.74
2023-01-31T10:17:42.915Z,72.54
2023-01-31T10:20:25.569Z,71.98
2023-01-31T10:23:04.493Z,72.69
2023-01-31T10:25:48.126Z,71.85
2023-01-31T10:28:31.763Z,71.75
2023-01-31T10:31:15.358Z,72.35
2023-01-31T10:34:06.863Z,72.91
2023-01-31T10:36:48.835Z,72.27
2023-01-31T10:39:28.109Z,72.48
2023-01-31T10:42:33.443Z,72.23
2023-01-31T10:45:17.295Z,73.08
2023-01-31T10:47:59.792Z,72.09
2023-01-31T10:50:47.675Z,71.64
2023-01-31T10:53:38.109Z,72.34
2023-01-31T10:56:20.342Z,71.44
2023-01-31T10:58:56.731Z,71.46
2023-01-31T11:01:31.124Z,71.76
2023-01-31T11:04:16.938Z,71.62
2023-01-31T11:06:52.637Z,70.58
2023-01-31T11:09:30.040Z,71.02
2023-01-31T11:12:08.542Z,70.11
2023-01-31T11:14:44.850Z,71.06
2023-01-31T11:17:25.584Z,70.40
2023-01-31T11:20:01.313Z,70.06
2023-01-31T11:22:40.344Z,69.83
2023-01-31T11:25:24.932Z,69.32
2023-01-31T11:28:03.186Z,69.65
2023-01-31T11:30:42.778Z,69.15
2023-01-31T11:33:42.442Z,69.49
2023-01-31T11:36:23.273Z,69.88
2023-01-31T11:38:58.632Z,69.84
2023-01-31T11:41:37.070Z,69.68
2023-01-31T11:44:18.247Z,69.17
2023-01-31T11:46:58.547Z,69.35
2023-01-31T11:49:36.148Z,69.47
2023-01-31T11:52:22.107Z,69.30
2023-01-31T11:55:01.066Z,69.09
2023-01-31T11:57:38.853Z,68.81
2023-01-31T12:00:27.061Z,69.32
2023-01-31T12:03:09.253Z,69.26
2023-01-31T12:05:49.351Z,69.29
2023-01-31T12:08:36.077Z,69.64
2023-01-31T12:11:30.478Z,69.57
2023-01-31T12:14:25.421Z,69.35
2023-01-31T12:17:02.490Z,69.91
2023-01-31T12:19:50.320Z,69.79
2023-01-31T12:22:34.286Z,69.89
2023-01-31T12:25:19.969Z,69.80
2023-01-31T12:28:06.231Z,69.97
2023-01-31T12:30:56.666Z,70.28
2023-01-31T12:33:43.130Z,70.06
2023-01-31T12:36:35.264Z,70.28
2023-01-31T12:39:26.927Z,70.14
2023-01-31T12:42:26.216Z,69.71
2023-01-31T12:45:17.489Z,70.12
2023-01-31T12:48:11.570Z,69.91
2023-01-31T12:50:52.505Z,70.20
2023-01-31T12:53:49.411Z,70.52
2023-01-31T12:56:50.814Z,70.84
2023-01-31T12:59:39.137Z,70.94
2023-01-31T13:02:35.650Z,70.97
2023-01-31T13:05:32.146Z,71.12
2023-01-31T13:08:17.870Z,71.31
2023-01-31T13:11:01.750Z,71.65
2023-01-31T13:13:44.197Z,71.50
2023-01-31T13:16:24.046Z,71.30
2023-01-31T13:19:03.298Z,71.36
2023-01-31T13:21:47.051Z,71.38
2023-01-31T13:24:28.872Z,71.76
2023-01-31T13:27:11.135Z,72.05
2023-01-31T13:29:55.385Z,72.01
2023-01-31T13:32:34.303Z,72.52
2023-01-31T13:35:19.110Z,72.67
2023-01-31T13:38:03.519Z,72.81
2023-01-31T13:40:45.945Z,72.84
2023-01-31T13:43:21.197Z,72.85
2023-01-31T13:46:02.705Z,72.97
2023-01-31T13:48:45.264Z,73.18
2023-01-31T13:51:24.891Z,72.91
2023-01-31T13:54:06.810Z,72.96
2023-01-31T13:56:42.715Z,73.23
2023-01-31T13:59:29.406Z,73.47
2023-01-31T14:02:08.421Z,73.47
2023-01-31T14:04:43.014Z,73.54
2023-01-31T14:07:25.935Z,73.99
2023-01-31T14:10:31.265Z,73.76
2023-01-31T14:13:40.123Z,73.98
2023-01-31T14:16:40.585Z,74.07
2023-01-31T14:19:57.616Z,74.19
2023-01-31T14:22:35.774Z,74.59
2023-01-31T14:25:18.757Z,74.66
2023-01-31T14:28:06.400Z,74.83
2023-01-31T14:30:47.663Z,75.05
2023-01-31T14:33:27.650Z,75.13
2023-01-31T14:36:29.180Z,75.16
2023-01-31T14:39:44.866Z,75.37
2023-01-31T14:45:46.966Z,76.36
2023-01-31T14:48:40.568Z,76.55
2023-01-31T14:51:25.762Z,76.73
2023-01-31T14:54:26.583Z,76.97
2023-01-31T14:57:36.292Z,76.95
2023-01-31T15:00:23.651Z,77.48
2023-01-31T15:03:06.361Z,77.45
2023-01-31T15:05:51.342Z,77.64
2023-01-31T15:09:11.382Z,77.73
2023-01-31T15:11:47.535Z,77.73
2023-01-31T15:14:43.293Z,77.66
2023-01-31T15:17:40.099Z,77.83
2023-01-31T15:20:26.457Z,77.86
2023-01-31T15:23:09.440Z,77.72
2023-01-31T15:25:48.546Z,77.95
2023-01-31T15:28:30.054Z,78.04
2023-01-31T15:31:11.575Z,78.42
2023-01-31T15:33:51.619Z,78.35
2023-01-31T15:36:34.770Z,78.52
2023-01-31T15:39:24.354Z,78.77
2023-01-31T15:41:59.884Z,78.87
2023-01-31T15:44:36.510Z,79.14
2023-01-31T15:47:26.124Z,79.03
2023-01-31T15:50:02.993Z,79.13
2023-01-31T15:52:37.416Z,79.33
2023-01-31T15:55:18.377Z,79.39
2023-01-31T15:57:57.782Z,79.86
2023-01-31T16:00:39.189Z,80.09
2023-01-31T16:03:24.479Z,80.44
2023-01-31T16:06:03.252Z,80.74
2023-01-31T16:08:40.742Z,81.01
2023-01-31T16:11:15.213Z,80.99
2023-01-31T16:13:52.064Z,81.35
2023-01-31T16:16:27.903Z,81.42
2023-01-31T16:19:04.788Z,81.59
2023-01-31T16:21:42.912Z,81.79
2023-01-31T16:24:22.459Z,82.07
2023-01-31T16:27:04.043Z,82.17
2023-01-31T16:29:46.114Z,82.52
2023-01-31T16:32:26.249Z,82.72
2023-01-31T16:35:02.916Z,83.07
2023-01-31T16:37:40.641Z,83.12
2023-01-31T16:40:28.253Z,83.46
2023-01-31T16:43:20.072Z,84.10
2023-01-31T16:46:00.881Z,84.21
2023-01-31T16:48:37.465Z,84.22
2023-01-31T16:51:42.683Z,84.57
2023-01-31T16:54:23.925Z,84.70
2023-01-31T16:57:27.947Z,84.86
2023-01-31T17:00:06.518Z,85.04
2023-01-31T17:02:45.769Z,85.35
2023-01-31T17:05:24.927Z,85.46
2023-01-31T17:08:01.574Z,85.34
2023-01-31T17:10:37.147Z,85.85
2023-01-31T17:13:20.461Z,85.93
2023-01-31T17:15:54.614Z,86.12
2023-01-31T17:18:29.557Z,86.23
2023-01-31T17:21:07.521Z,86.38
2023-01-31T17:23:42.962Z,86.45
2023-01-31T17:26:31.009Z,86.53
2023-01-31T17:29:08.000Z,86.73
2023-01-31T17:31:43.000Z,86.99
2023-01-31T17:34:21.002Z,86.95
2023-01-31T17:36:55.366Z,87.29
2023-01-31T17:39:29.846Z,87.69
2023-01-31T17:42:05.064Z,87.71
2023-01-31T17:44:40.953Z,87.94
2023-01-31T17:47:18.169Z,87.93
2023-01-31T17:49:54.529Z,88.09
2023-01-31T17:52:28.884Z,88.26
2023-01-31T17:55:04.221Z,88.46
2023-01-31T17:57:42.998Z,88.66
2023-01-31T18:00:22.411Z,88.60
2023-01-31T18:03:05.544Z,88.57
2023-01-31T18:05:41.427Z,88.79
2023-01-31T18:08:18.884Z,89.13
2023-01-31T18:10:54.918Z,88.75
2023-01-31T18:13:30.096Z,89.00
2023-01-31T18:16:11.993Z,89.23
2023-01-31T18:18:47.699Z,89.34
2023-01-31T18:21:24.828Z,89.17
2023-01-31T18:24:04.171Z,89.39
2023-01-31T18:26:40.776Z,89.52
2023-01-31T18:29:20.607Z,89.50
2023-01-31T18:32:02.826Z,89.84
2023-01-31T18:34:40.872Z,89.87
2023-01-31T18:37:20.536Z,89.78
2023-01-31T18:39:56.889Z,89.90
2023-01-31T18:42:33.703Z,89.88
2023-01-31T18:45:11.303Z,90.27
2023-01-31T18:47:50.026Z,90.46
2023-01-31T18:50:25.946Z,90.47
2023-01-31T18:53:01.990Z,90.67
2023-01-31T18:55:35.792Z,90.68
2023-01-31T18:58:11.545Z,90.67
2023-01-31T19:00:47.358Z,91.10
2023-01-31T19:03:23.190Z,91.33
2023-01-31T19:06:04.834Z,91.45
2023-01-31T19:08:40.072Z,91.33
2023-01-31T19:11:20.398Z,91.71
2023-01-31T19:13:55.493Z,92.25
2023-01-31T19:16:33.314Z,92.33
2023-01-31T19:19:08.647Z,92.31
2023-01-31T19:21:47.477Z,92.28
2023-01-31T19:24:21.815Z,92.34
2023-01-31T19:27:02.293Z,92.39
2023-01-31T19:29:39.849Z,92.57
2023-01-31T19:32:15.763Z,92.61
2023-01-31T19:34:54.072Z,92.67
2023-01-31T19:37:29.758Z,92.80
2023-01-31T19:40:05.904Z,92.98
2023-01-31T19:42:45.110Z,92.93
2023-01-31T19:45:21.993Z,93.06
2023-01-31T19:48:01.569Z,93.03
2023-01-31T19:50:37.172Z,93.33
2023-01-31T19:53:12.662Z,93.51
2023-01-31T19:55:49.658Z,93.61
2023-01-31T19:58:25.893Z,93.56
2023-01-31T20:01:01.904Z,93.81
2023-01-31T20:03:39.043Z,93.93
2023-01-31T20:06:16.734Z,94.08
2023-01-31T20:08:55.483Z,94.20
2023-01-31T20:11:31.018Z,93.92
2023-01-31T20:14:07.969Z,94.05
2023-01-31T20:16:44.446Z,94.15
2023-01-31T20:19:20.602Z,94.30
2023-01-31T20:21:55.538Z,94.23
2023-01-31T20:24:30.884Z,94.14
2023-01-31T20:27:06.541Z,94.27
2023-01-31T20:29:42.884Z,94.18
2023-01-31T20:32:18.031Z,94.23
2023-01-31T20:34:57.408Z,94.25
2023-01-31T20:37:33.828Z,94.18
2023-01-31T20:40:09.358Z,94.38
2023-01-31T20:42:45.765Z,94.24
2023-01-31T20:45:26.900Z,94.45
2023-01-31T20:48:03.934Z,94.28
2023-01-31T20:50:39.932Z,94.15
2023-01-31T20:53:22.039Z,94.40
2023-01-31T20:56:02.298Z,94.34
2023-01-31T20:58:41.649Z,94.34
2023-01-31T21:01:18.493Z,94.13
2023-01-31T21:03:55.823Z,94.16
2023-01-31T21:06:32.159Z,94.04
2023-01-31T21:09:06.752Z,93.97
2023-01-31T21:11:42.297Z,94.15
2023-01-31T21:14:17.552Z,94.19
2023-01-31T21:16:53.023Z,94.22
2023-01-31T21:19:29.470Z,94.14
2023-01-31T21:22:05.268Z,93.99
2023-01-31T21:24:41.032Z,94.15
2023-01-31T21:27:17.395Z,94.26
2023-01-31T21:29:54.869Z,94.25
2023-01-31T21:32:30.822Z,94.30
2023-01-31T21:35:07.728Z,94.33
2023-01-31T21:37:43.235Z,94.28
2023-01-31T21:40:20.731Z,94.26
2023-01-31T21:42:56.924Z,94.00
2023-01-31T21:45:45.525Z,93.92
2023-01-31T21:48:31.073Z,93.97
2023-01-31T21:51:10.797Z,94.23
2023-01-31T21:53:46.665Z,94.73
2023-01-31T21:56:23.465Z,93.52
2023-01-31T21:58:59.101Z,92.13
2023-01-31T22:01:35.775Z,91.63
2023-01-31T22:04:11.847Z,91.63
2023-01-31T22:06:47.107Z,91.79
2023-01-31T22:09:24.053Z,91.75
2023-01-31T22:12:01.423Z,91.76
2023-01-31T22:14:38.530Z,91.95
2023-01-31T22:17:15.590Z,92.07
2023-01-31T22:19:50.951Z,92.36
2023-01-31T22:22:29.903Z,92.07
2023-01-31T22:25:04.949Z,92.24
2023-01-31T22:27:39.465Z,92.30
2023-01-31T22:30:18.763Z,92.49
2023-01-31T22:32:55.873Z,92.57
2023-01-31T22:35:32.918Z,92.49
2023-01-31T22:38:07.200Z,92.71
2023-01-31T22:40:45.865Z,92.73
2023-01-31T22:43:22.741Z,92.90
2023-01-31T22:46:02.055Z,92.85
2023-01-31T22:48:38.370Z,92.72
2023-01-31T22:51:16.655Z,92.69
2023-01-31T22:53:52.473Z,92.48
2023-01-31T22:56:29.022Z,92.38
2023-01-31T22:59:06.191Z,92.19
2023-01-31T23:01:45.704Z,92.46
2023-01-31T23:04:20.469Z,92.53
2023-01-31T23:06:54.859Z,92.27
2023-01-31T23:09:30.655Z,92.24
2023-01-31T23:12:07.175Z,92.41
2023-01-31T23:14:43.619Z,92.28
2023-01-31T23:17:36.002Z,92.05
2023-01-31T23:20:23.130Z,92.51
2023-01-31T23:22:59.929Z,92.44
2023-01-31T23:25:34.663Z,92.47
2023-01-31T23:28:09.514Z,92.45
2023-01-31T23:30:47.126Z,92.19
2023-01-31T23:33:23.147Z,92.42
2023-01-31T23:36:00.201Z,92.72
2023-01-31T23:38:36.300Z,92.74
2023-01-31T23:41:12.732Z,92.86
2023-01-31T23:43:49.760Z,92.98
2023-01-31T23:46:25.528Z,93.01
2023-01-31T23:49:00.396Z,92.96
2023-01-31T23:51:35.063Z,92.80
2023-01-31T23:54:12.142Z,92.42
2023-01-31T23:56:48.324Z,92.49
2023-01-31T23:59:22.419Z,92.51
